Time;durP1;ratioP1;P1;durP2;ratioP2;P2;SDS_P1;SDS_P2;PMS_P1;PMS_P2;Temp;Humidity;BMP_temperature;BMP_pressure;BME280_temperature;BME280_humidity;BME280_pressure;Samples;Min_cycle;Max_cycle;Signal;HPM_P1;HPM_P2
2023/05/10 06:31:55;;;;;;;2.80;0.80;;;15.00;99.90;;;;;;6657609;23;20044;-77
2023/05/10 06:34:57;;;;;;;4.07;0.90;;;15.10;99.90;;;;;;6104439;29;20052;-76
2023/05/10 06:37:58;;;;;;;2.70;0.90;;;15.10;99.90;;;;;;6104162;29;20059;-75
2023/05/10 06:41:01;;;;;;;3.88;1.00;;;15.30;99.90;;;;;;6104311;29;20497;-76
2023/05/10 06:44:03;;;;;;;2.92;1.10;;;15.10;99.90;;;;;;6104008;29;20048;-77
2023/05/10 06:47:06;;;;;;;3.47;1.00;;;15.10;99.90;;;;;;6104182;29;20052;-74
2023/05/10 06:50:09;;;;;;;2.63;1.00;;;15.10;99.90;;;;;;6104350;29;20051;-77
2023/05/10 06:53:11;;;;;;;3.95;1.10;;;15.10;99.90;;;;;;6103974;29;20051;-75
2023/05/10 06:56:13;;;;;;;2.08;1.00;;;15.10;99.90;;;;;;6103692;29;20208;-76
2023/05/10 06:59:16;;;;;;;3.60;1.20;;;15.20;99.90;;;;;;6103436;29;20052;-75
2023/05/10 07:02:19;;;;;;;2.88;1.00;;;15.20;99.90;;;;;;6103668;29;20055;-76
2023/05/10 07:05:22;;;;;;;3.88;1.13;;;15.10;99.90;;;;;;6105013;29;20055;-75
2023/05/10 07:08:23;;;;;;;2.35;1.02;;;15.20;99.90;;;;;;6103286;29;20506;-72
2023/05/10 07:11:25;;;;;;;3.35;1.10;;;15.30;99.90;;;;;;6103877;29;20055;-74
2023/05/10 07:14:27;;;;;;;2.55;0.90;;;15.40;99.90;;;;;;6103471;29;20059;-74
2023/05/10 07:17:30;;;;;;;3.35;1.00;;;15.40;99.90;;;;;;6104536;29;20048;-75
2023/05/10 07:20:32;;;;;;;2.22;0.98;;;15.50;99.90;;;;;;6103468;29;20406;-76
2023/05/10 07:23:34;;;;;;;3.25;0.90;;;15.60;99.90;;;;;;6124413;29;20055;-74
2023/05/10 07:26:36;;;;;;;3.28;0.93;;;15.50;99.90;;;;;;6125941;29;20040;-77
2023/05/10 07:29:37;;;;;;;2.92;0.90;;;15.50;99.90;;;;;;6127205;29;20048;-75
2023/05/10 07:32:41;;;;;;;4.75;1.00;;;15.60;99.90;;;;;;6120258;29;20052;-74
2023/05/10 07:35:43;;;;;;;;;;;15.60;99.90;;;;;;6104693;29;20399;-75
2023/05/10 07:38:45;;;;;;;3.33;0.90;;;15.70;99.90;;;;;;6103638;29;19922;-75
2023/05/10 07:41:47;;;;;;;4.15;0.95;;;15.60;99.90;;;;;;6103722;29;20052;-76
2023/05/10 07:44:48;;;;;;;2.92;0.80;;;15.70;99.90;;;;;;6103237;29;20387;-75
2023/05/10 07:47:52;;;;;;;4.13;0.93;;;15.70;99.90;;;;;;6104449;29;20161;-75
2023/05/10 07:50:54;;;;;;;3.10;0.85;;;15.70;99.90;;;;;;6103278;29;20130;-76
2023/05/10 07:53:56;;;;;;;2.00;0.70;;;15.70;99.90;;;;;;6103185;29;20135;-75
2023/05/10 07:56:59;;;;;;;3.93;0.70;;;15.50;99.90;;;;;;6103223;29;20490;-77
2023/05/10 08:00:01;;;;;;;2.15;0.88;;;15.60;99.90;;;;;;6102678;29;20402;-76
2023/05/10 08:03:05;;;;;;;1.70;0.70;;;15.50;99.90;;;;;;6103723;29;20063;-77
2023/05/10 08:06:07;;;;;;;2.33;0.68;;;15.60;99.90;;;;;;6103025;29;20056;-77
2023/05/10 08:09:10;;;;;;;2.88;0.70;;;15.60;99.90;;;;;;6102880;29;20052;-77
2023/05/10 08:12:12;;;;;;;2.17;0.70;;;15.60;99.90;;;;;;6104439;29;20076;-77
2023/05/10 08:15:14;;;;;;;1.90;0.70;;;15.60;99.90;;;;;;6103571;29;20052;-77
2023/05/10 08:18:17;;;;;;;3.03;0.80;;;15.70;99.90;;;;;;6104213;29;20052;-76
2023/05/10 08:21:19;;;;;;;2.08;0.75;;;15.70;99.90;;;;;;6108125;29;20413;-74
2023/05/10 08:24:21;;;;;;;3.65;0.82;;;15.80;99.90;;;;;;6107449;29;20055;-75
2023/05/10 08:27:22;;;;;;;1.40;0.63;;;15.70;99.90;;;;;;6106959;29;20490;-77
2023/05/10 08:30:24;;;;;;;1.30;0.60;;;15.80;99.90;;;;;;6106755;29;20052;-76
2023/05/10 08:33:27;;;;;;;2.80;0.80;;;15.60;99.90;;;;;;6107031;29;20493;-75
2023/05/10 08:36:29;;;;;;;2.75;0.73;;;15.70;99.90;;;;;;6107878;29;20055;-77
2023/05/10 08:39:35;;;;;;;1.05;0.60;;;15.80;99.90;;;;;;6106886;29;20094;-76
2023/05/10 08:42:40;;;;;;;3.88;0.85;;;16.00;99.90;;;;;;6106636;29;20052;-75
2023/05/10 08:45:46;;;;;;;2.00;0.80;;;16.10;99.90;;;;;;6106603;29;20052;-74
2023/05/10 08:48:52;;;;;;;3.92;0.80;;;16.10;99.90;;;;;;6106489;29;20131;-75
2023/05/10 08:51:56;;;;;;;1.85;0.60;;;16.30;99.90;;;;;;6129362;29;20063;-74
2023/05/10 08:54:59;;;;;;;3.40;0.70;;;16.30;99.90;;;;;;6129934;29;20058;-75
2023/05/10 08:58:01;;;;;;;3.00;0.80;;;16.30;99.90;;;;;;6130121;29;20043;-77
2023/05/10 09:01:04;;;;;;;2.55;0.70;;;16.30;99.90;;;;;;6128119;29;20054;-74
2023/05/10 09:04:07;;;;;;;2.03;0.70;;;16.10;99.90;;;;;;6126654;29;20067;-75
2023/05/10 09:07:09;;;;;;;2.05;0.80;;;16.20;99.90;;;;;;6106197;29;20048;-75
2023/05/10 09:10:12;;;;;;;2.78;1.17;;;16.00;99.90;;;;;;6105963;29;20044;-74
2023/05/10 09:13:16;;;;;;;1.65;0.68;;;16.00;99.90;;;;;;6106403;29;20409;-76
2023/05/10 09:16:18;;;;;;;1.73;0.80;;;16.10;99.90;;;;;;6106023;29;20050;-74
2023/05/10 09:19:21;;;;;;;1.85;0.60;;;16.10;99.90;;;;;;6111864;29;20485;-75
2023/05/10 09:22:23;;;;;;;1.42;0.60;;;16.10;99.90;;;;;;6130864;29;20051;-76
2023/05/10 09:25:25;;;;;;;2.58;0.82;;;16.10;99.90;;;;;;6131003;29;20059;-77
2023/05/10 09:28:26;;;;;;;2.72;0.80;;;16.10;99.90;;;;;;6133637;29;20051;-77
2023/05/10 09:31:47;;;;;;;2.38;0.60;;;16.10;99.90;;;;;;6137376;29;20565;-77
2023/05/10 09:34:51;;;;;;;3.22;0.57;;;16.20;99.90;;;;;;6119416;29;20108;-78
2023/05/10 09:37:54;;;;;;;;;;;16.30;99.90;;;;;;6105995;29;20048;-77
2023/05/10 09:40:57;;;;;;;2.08;0.60;;;16.40;99.90;;;;;;6105206;29;19923;-79
2023/05/10 09:43:59;;;;;;;1.50;0.60;;;16.40;99.90;;;;;;6105212;29;20055;-76
2023/05/10 09:47:01;;;;;;;1.55;0.50;;;16.30;99.90;;;;;;6105220;29;20052;-78
2023/05/10 09:50:06;;;;;;;1.35;0.60;;;16.30;99.90;;;;;;6106296;29;20048;-78
2023/05/10 09:53:08;;;;;;;0.85;0.40;;;16.40;99.90;;;;;;6124549;29;20058;-77
2023/05/10 09:56:10;;;;;;;2.03;0.60;;;16.40;99.90;;;;;;6127098;29;20051;-79
2023/05/10 09:59:13;;;;;;;1.42;0.57;;;16.50;99.90;;;;;;6128699;29;20062;-78
2023/05/10 10:02:15;;;;;;;1.50;0.45;;;16.60;99.90;;;;;;6128253;29;20146;-77
2023/05/10 10:05:18;;;;;;;1.60;0.50;;;16.70;99.90;;;;;;6128646;29;20047;-78
2023/05/10 10:08:20;;;;;;;2.88;0.50;;;16.70;99.90;;;;;;6128123;29;20051;-77
2023/05/10 10:11:23;;;;;;;1.10;0.40;;;16.70;99.90;;;;;;6116176;29;20084;-79
2023/05/10 10:14:25;;;;;;;1.02;0.40;;;16.60;99.90;;;;;;6104599;29;20420;-79
2023/05/10 10:17:29;;;;;;;2.15;0.50;;;16.70;99.90;;;;;;6104451;29;20048;-77
2023/05/10 10:20:32;;;;;;;3.22;0.60;;;16.70;99.90;;;;;;6119719;29;20507;-78
2023/05/10 10:23:35;;;;;;;0.85;0.40;;;16.80;99.90;;;;;;6127466;29;20501;-79
2023/05/10 10:26:38;;;;;;;1.00;0.50;;;16.80;99.90;;;;;;6127529;29;20051;-78
2023/05/10 10:29:51;;;;;;;1.33;0.35;;;16.90;99.90;;;;;;6117386;29;20311;-78
2023/05/10 10:33:22;;;;;;;2.10;0.47;;;16.80;99.90;;;;;;6104049;29;20502;-77
2023/05/10 10:36:26;;;;;;;0.93;0.30;;;17.00;99.80;;;;;;6104219;29;20059;-79
2023/05/10 10:39:29;;;;;;;2.33;0.50;;;17.10;99.90;;;;;;6104042;29;20515;-80
2023/05/10 10:42:46;;;;;;;1.52;0.40;;;16.90;99.50;;;;;;6103468;29;20058;-79
2023/05/10 10:46:14;;;;;;;1.02;0.40;;;16.90;99.90;;;;;;6104098;29;20505;-77
2023/05/10 10:49:17;;;;;;;2.47;0.50;;;16.80;99.40;;;;;;6103819;29;20478;-79
2023/05/10 10:52:28;;;;;;;1.58;0.30;;;16.70;99.40;;;;;;6104148;29;20087;-79
2023/05/10 10:55:30;;;;;;;2.17;0.60;;;16.60;99.90;;;;;;6103911;29;20475;-80
2023/05/10 10:58:32;;;;;;;1.50;0.50;;;16.60;99.90;;;;;;6103790;29;20055;-79
2023/05/10 11:01:35;;;;;;;2.45;0.70;;;16.60;99.90;;;;;;6103953;29;20058;-77
2023/05/10 11:04:46;;;;;;;2.00;0.40;;;16.60;99.90;;;;;;6103870;29;20084;-77
2023/05/10 11:07:56;;;;;;;1.67;0.60;;;16.50;99.90;;;;;;6109640;29;20055;-77
2023/05/10 11:11:10;;;;;;;1.52;0.60;;;16.50;99.90;;;;;;6110672;29;20051;-80
2023/05/10 11:14:11;;;;;;;;;;;16.50;99.90;;;;;;6132378;29;20428;-80
2023/05/10 11:17:28;;;;;;;1.60;0.50;;;16.50;99.90;;;;;;6142823;29;19927;-77
2023/05/10 11:20:40;;;;;;;2.55;0.73;;;16.50;99.90;;;;;;6133380;28;20040;-79
2023/05/10 11:23:56;;;;;;;1.75;0.70;;;16.50;99.90;;;;;;6101121;29;20486;-79
2023/05/10 11:26:58;;;;;;;1.33;0.52;;;16.40;99.90;;;;;;6103766;29;20430;-77
2023/05/10 11:29:59;;;;;;;3.33;0.55;;;16.40;99.90;;;;;;6140994;29;20514;-79
2023/05/10 11:33:01;;;;;;;2.50;0.80;;;15.60;99.90;;;;;;6147693;28;20063;-77
2023/05/10 11:36:03;;;;;;;2.15;0.70;;;15.00;99.90;;;;;;6112546;28;20052;-78
2023/05/10 11:39:07;;;;;;;1.25;0.40;;;14.70;99.90;;;;;;6100501;29;20067;-76
2023/05/10 11:42:11;;;;;;;;;;;14.50;99.90;;;;;;6112634;29;20099;-79
2023/05/10 11:45:12;;;;;;;2.33;0.52;;;14.60;99.90;;;;;;6111949;29;19926;-77
2023/05/10 11:48:16;;;;;;;2.47;0.68;;;14.70;99.90;;;;;;6116761;29;20055;-80
2023/05/10 11:51:21;;;;;;;;;;;14.40;99.90;;;;;;6133343;29;20055;-79
2023/05/10 11:54:24;;;;;;;1.67;0.55;;;14.40;99.90;;;;;;6117418;28;19927;-78
2023/05/10 11:57:28;;;;;;;1.50;0.60;;;14.40;99.90;;;;;;6108246;29;20059;-78
2023/05/10 12:00:31;;;;;;;1.85;0.60;;;14.60;99.90;;;;;;6109642;29;20059;-78
2023/05/10 12:03:34;;;;;;;3.65;0.77;;;14.40;99.90;;;;;;6110581;29;20066;-78
2023/05/10 12:06:41;;;;;;;2.38;0.73;;;14.50;99.90;;;;;;6106208;29;20052;-76
2023/05/10 12:09:45;;;;;;;2.83;0.75;;;14.60;99.90;;;;;;6129198;29;20551;-78
2023/05/10 12:12:48;;;;;;;2.50;0.60;;;14.50;99.90;;;;;;6113559;28;20048;-78
2023/05/10 12:15:50;;;;;;;2.60;0.65;;;14.30;99.90;;;;;;6105040;29;20064;-77
2023/05/10 12:18:54;;;;;;;2.65;0.70;;;14.50;99.90;;;;;;6110567;29;20497;-78
2023/05/10 12:21:56;;;;;;;4.03;0.95;;;14.60;99.90;;;;;;6125092;29;20071;-77
2023/05/10 12:24:59;;;;;;;3.17;0.90;;;14.80;99.90;;;;;;6120195;29;20044;-78
2023/05/10 12:28:05;;;;;;;2.92;1.05;;;14.80;99.90;;;;;;6104598;29;20051;-78
2023/05/10 12:31:08;;;;;;;4.53;1.30;;;14.90;99.90;;;;;;6108528;29;20064;-77
2023/05/10 12:34:10;;;;;;;3.67;1.00;;;15.00;99.90;;;;;;6128854;29;20051;-77
2023/05/10 12:37:11;;;;;;;3.78;1.25;;;15.00;99.90;;;;;;6130437;29;20558;-77
2023/05/10 12:40:15;;;;;;;6.55;2.90;;;15.00;99.90;;;;;;6130476;29;20058;-79
2023/05/10 12:43:16;;;;;;;12.32;6.35;;;15.20;99.90;;;;;;6130420;29;20528;-77
2023/05/10 12:46:24;;;;;;;10.70;4.72;;;15.40;99.90;;;;;;6130250;29;20077;-79
2023/05/10 12:49:26;;;;;;;8.38;2.75;;;15.50;99.90;;;;;;6130464;29;20055;-76
2023/05/10 12:52:28;;;;;;;4.70;1.00;;;15.60;99.90;;;;;;6130115;29;20047;-77
2023/05/10 12:55:32;;;;;;;3.83;1.20;;;15.70;99.90;;;;;;6130161;29;20059;-79
2023/05/10 12:58:35;;;;;;;3.80;1.27;;;15.80;99.90;;;;;;6130156;29;20044;-77
2023/05/10 13:01:36;;;;;;;2.97;1.00;;;16.00;99.90;;;;;;6130462;29;20495;-77
2023/05/10 13:04:39;;;;;;;4.32;1.10;;;16.00;99.90;;;;;;6129840;29;20062;-78
2023/05/10 13:07:43;;;;;;;3.60;1.30;;;16.10;99.90;;;;;;6131250;29;20043;-77
2023/05/10 13:10:46;;;;;;;4.10;1.30;;;16.40;99.90;;;;;;6133778;29;20044;-76
2023/05/10 13:13:48;;;;;;;2.53;0.90;;;16.50;99.90;;;;;;6133602;29;20048;-77
2023/05/10 13:16:50;;;;;;;3.78;0.95;;;16.60;99.90;;;;;;6131240;29;20044;-76
2023/05/10 13:19:52;;;;;;;2.85;0.90;;;16.60;99.90;;;;;;6130346;29;20048;-78
2023/05/10 13:22:54;;;;;;;2.10;0.90;;;16.70;99.90;;;;;;6129677;29;20075;-77
2023/05/10 13:25:57;;;;;;;3.08;0.77;;;16.80;99.90;;;;;;6129297;29;20048;-78
2023/05/10 13:28:59;;;;;;;2.25;0.88;;;17.00;99.90;;;;;;6129227;29;20048;-78
2023/05/10 13:32:01;;;;;;;2.58;0.80;;;16.90;99.90;;;;;;6129381;29;20119;-79
2023/05/10 13:35:04;;;;;;;3.67;0.90;;;17.00;99.90;;;;;;6129085;29;20048;-78
2023/05/10 13:38:07;;;;;;;2.63;1.00;;;17.10;99.90;;;;;;6129110;29;20051;-78
2023/05/10 13:41:11;;;;;;;3.17;1.13;;;17.10;99.90;;;;;;6128865;29;20441;-77
2023/05/10 13:44:13;;;;;;;;;;;17.20;99.90;;;;;;6129269;29;20054;-77
2023/05/10 13:47:15;;;;;;;2.13;0.70;;;17.10;99.90;;;;;;6129877;29;20078;-76
2023/05/10 13:50:17;;;;;;;4.57;1.40;;;17.10;99.90;;;;;;6130571;29;20417;-76
2023/05/10 13:53:19;;;;;;;2.42;0.80;;;17.20;99.90;;;;;;6128830;29;20108;-79
2023/05/10 13:56:22;;;;;;;5.70;2.28;;;17.00;99.90;;;;;;6128884;29;20048;-77
2023/05/10 13:59:24;;;;;;;2.50;0.90;;;17.10;99.90;;;;;;6128851;29;20058;-76
2023/05/10 14:02:27;;;;;;;2.28;0.70;;;17.00;99.90;;;;;;6128680;29;20062;-77
2023/05/10 14:05:29;;;;;;;2.55;1.00;;;17.20;99.90;;;;;;6128379;29;20176;-79
2023/05/10 14:08:31;;;;;;;4.45;0.80;;;17.10;99.90;;;;;;6128678;29;20051;-78
2023/05/10 14:11:34;;;;;;;3.03;0.90;;;17.00;99.30;;;;;;6128267;29;20066;-79
2023/05/10 14:14:36;;;;;;;2.30;0.95;;;17.00;99.30;;;;;;6128447;29;20056;-77
2023/05/10 14:17:38;;;;;;;3.03;0.90;;;16.90;98.90;;;;;;6127337;29;20175;-79
2023/05/10 14:20:40;;;;;;;7.03;1.20;;;16.80;98.90;;;;;;6128555;29;20058;-78
2023/05/10 14:23:41;;;;;;;3.22;1.00;;;16.90;99.90;;;;;;6127822;29;20051;-78
2023/05/10 14:26:45;;;;;;;4.00;1.00;;;17.00;99.90;;;;;;6127942;29;20054;-78
2023/05/10 14:29:46;;;;;;;4.18;1.00;;;17.20;99.90;;;;;;6127942;29;20047;-78
2023/05/10 14:32:48;;;;;;;3.38;0.90;;;17.20;99.90;;;;;;6127575;29;20059;-78
2023/05/10 14:35:50;;;;;;;3.47;0.98;;;17.20;99.90;;;;;;6127783;29;20413;-79
2023/05/10 14:38:52;;;;;;;3.28;0.75;;;17.20;99.90;;;;;;6127776;29;20054;-77
2023/05/10 14:41:55;;;;;;;2.90;0.90;;;17.20;99.90;;;;;;6127954;29;20058;-76
2023/05/10 14:44:57;;;;;;;2.30;0.88;;;17.30;99.90;;;;;;6127517;29;20059;-78
2023/05/10 14:47:59;;;;;;;47.58;22.75;;;17.30;99.40;;;;;;6127988;29;20047;-76
2023/05/10 14:51:01;;;;;;;8.98;4.07;;;17.40;99.70;;;;;;6122342;29;20054;-79
2023/05/10 14:54:03;;;;;;;4.80;1.60;;;17.30;98.70;;;;;;6125213;29;20413;-78
2023/05/10 14:57:07;;;;;;;4.43;1.08;;;17.40;98.90;;;;;;6124292;29;20060;-79
2023/05/10 15:00:11;;;;;;;5.40;1.80;;;17.30;98.70;;;;;;6107604;29;20056;-81
2023/05/10 15:03:17;;;;;;;4.30;1.20;;;17.40;99.70;;;;;;6124552;29;20055;-77
2023/05/10 15:06:25;;;;;;;3.95;1.33;;;17.40;99.40;;;;;;6122877;29;20058;-79
2023/05/10 15:09:27;;;;;;;3.85;1.00;;;17.40;99.70;;;;;;6100519;29;20063;-78
2023/05/10 15:12:31;;;;;;;4.55;1.50;;;17.40;99.90;;;;;;6119500;29;20052;-78
2023/05/10 15:15:33;;;;;;;3.22;1.00;;;17.40;99.40;;;;;;6122272;29;20496;-78
2023/05/10 15:18:34;;;;;;;3.22;1.33;;;17.50;99.90;;;;;;6123401;29;20195;-76
2023/05/10 15:21:38;;;;;;;3.35;0.95;;;17.60;99.90;;;;;;6121928;29;20052;-78
2023/05/10 15:24:40;;;;;;;3.28;1.00;;;17.60;99.40;;;;;;6123900;29;20172;-79
2023/05/10 15:27:44;;;;;;;5.03;1.02;;;17.70;99.40;;;;;;6116891;29;20059;-78
2023/05/10 15:30:46;;;;;;;3.03;0.90;;;17.80;98.90;;;;;;6110198;29;20062;-79
2023/05/10 15:33:47;;;;;;;4.53;1.27;;;17.70;98.80;;;;;;6127883;29;20052;-77
2023/05/10 15:36:49;;;;;;;2.03;1.00;;;17.80;99.10;;;;;;6128578;29;20485;-78
2023/05/10 15:39:51;;;;;;;3.65;1.00;;;17.90;99.90;;;;;;6128830;29;20067;-77
2023/05/10 15:42:54;;;;;;;3.42;1.50;;;17.90;99.90;;;;;;6121918;29;20498;-78
2023/05/10 15:45:56;;;;;;;3.70;1.20;;;17.90;99.90;;;;;;6128527;29;20047;-76
2023/05/10 15:48:59;;;;;;;3.38;1.10;;;18.00;99.90;;;;;;6118074;29;20048;-77
2023/05/10 15:52:00;;;;;;;4.57;1.73;;;17.90;99.90;;;;;;6104893;29;20451;-79
2023/05/10 15:55:03;;;;;;;3.17;1.30;;;17.90;99.70;;;;;;6105303;29;20052;-77
2023/05/10 15:58:06;;;;;;;4.30;1.75;;;17.80;99.90;;;;;;6105122;29;20059;-79
2023/05/10 16:01:08;;;;;;;4.28;1.50;;;17.80;99.50;;;;;;6122842;29;20529;-78
2023/05/10 16:04:10;;;;;;;4.40;1.00;;;17.70;99.70;;;;;;6127828;29;20063;-78
2023/05/10 16:07:12;;;;;;;5.93;1.30;;;17.70;99.40;;;;;;6128273;29;20052;-78
2023/05/10 16:10:14;;;;;;;1.95;0.82;;;17.70;99.30;;;;;;6120385;29;20067;-78
2023/05/10 16:13:17;;;;;;;3.03;1.20;;;17.70;99.10;;;;;;6104663;29;20072;-77
2023/05/10 16:16:19;;;;;;;;;;;17.70;99.00;;;;;;6111728;29;20509;-79
2023/05/10 16:19:21;;;;;;;3.20;1.13;;;17.70;98.90;;;;;;6126343;29;19927;-77
2023/05/10 16:22:26;;;;;;;5.13;1.20;;;17.70;99.20;;;;;;6127482;29;20078;-79
2023/05/10 16:25:27;;;;;;;3.30;1.10;;;17.60;99.40;;;;;;6124151;29;20075;-79
2023/05/10 16:28:31;;;;;;;2.97;0.90;;;17.60;99.30;;;;;;6120178;29;20054;-77
2023/05/10 16:31:33;;;;;;;6.53;1.10;;;17.60;99.30;;;;;;6116419;29;20063;-78
2023/05/10 16:34:35;;;;;;;2.42;0.93;;;17.60;99.10;;;;;;6118951;29;20052;-79
2023/05/10 16:37:37;;;;;;;4.28;0.90;;;17.50;98.70;;;;;;6117273;29;20474;-77
2023/05/10 16:40:39;;;;;;;3.42;0.77;;;17.50;98.70;;;;;;6126026;29;20059;-77
2023/05/10 16:43:42;;;;;;;3.60;0.80;;;17.40;98.60;;;;;;6126923;29;20048;-79
2023/05/10 16:46:44;;;;;;;2.92;1.00;;;17.40;98.80;;;;;;6125822;29;20183;-77
2023/05/10 16:49:46;;;;;;;3.13;0.90;;;17.40;98.70;;;;;;6127089;29;20055;-78
2023/05/10 16:52:48;;;;;;;4.00;0.90;;;17.30;98.50;;;;;;6126403;29;20528;-77
2023/05/10 16:55:50;;;;;;;5.78;1.30;;;17.40;98.70;;;;;;6124476;29;20048;-78
2023/05/10 16:58:53;;;;;;;4.35;1.10;;;17.30;99.40;;;;;;6124214;29;20064;-78
2023/05/10 17:01:55;;;;;;;2.42;0.88;;;17.30;99.40;;;;;;6126359;29;20055;-80
2023/05/10 17:04:57;;;;;;;5.03;1.05;;;17.20;99.60;;;;;;6125504;29;20066;-76
2023/05/10 17:07:58;;;;;;;2.75;1.00;;;17.10;99.60;;;;;;6126449;29;20417;-77
2023/05/10 17:11:02;;;;;;;4.45;1.35;;;17.10;99.80;;;;;;6126528;29;20044;-77
2023/05/10 17:14:06;;;;;;;3.47;1.30;;;17.10;99.90;;;;;;6126403;29;20047;-79
2023/05/10 17:17:08;;;;;;;3.17;1.23;;;17.10;99.90;;;;;;6124127;29;20059;-78
2023/05/10 17:20:11;;;;;;;5.88;1.13;;;16.90;99.30;;;;;;6125915;29;20066;-77
2023/05/10 17:23:12;;;;;;;3.65;1.10;;;16.80;99.40;;;;;;6125621;29;20051;-77
2023/05/10 17:26:14;;;;;;;4.07;0.90;;;16.70;99.70;;;;;;6127111;29;20047;-76
2023/05/10 17:29:18;;;;;;;4.55;1.20;;;16.60;99.20;;;;;;6123892;29;20115;-76
2023/05/10 17:32:20;;;;;;;4.85;1.00;;;16.60;99.10;;;;;;6126333;29;20071;-77
2023/05/10 17:35:21;;;;;;;3.20;0.93;;;16.50;99.20;;;;;;6122861;29;20048;-77
2023/05/10 17:38:23;;;;;;;5.10;1.20;;;16.50;99.40;;;;;;6125146;29;20055;-76
2023/05/10 17:41:26;;;;;;;4.32;1.33;;;16.40;99.40;;;;;;6125248;29;20052;-78
2023/05/10 17:44:29;;;;;;;3.20;1.10;;;16.40;99.30;;;;;;6126084;29;20055;-77
2023/05/10 17:47:31;;;;;;;5.00;1.30;;;16.30;99.60;;;;;;6118782;29;20052;-77
2023/05/10 17:50:33;;;;;;;4.43;1.10;;;16.20;99.60;;;;;;6104294;29;20447;-76
2023/05/10 17:53:35;;;;;;;4.55;1.40;;;16.30;99.90;;;;;;6117586;29;20059;-78
2023/05/10 17:56:36;;;;;;;6.95;1.30;;;16.20;99.90;;;;;;6122657;29;20059;-76
2023/05/10 17:59:41;;;;;;;5.13;1.30;;;16.20;99.90;;;;;;6109658;29;20703;-77
2023/05/10 18:02:43;;;;;;;2.63;1.00;;;16.20;99.90;;;;;;6125374;28;20055;-77
2023/05/10 18:05:45;;;;;;;3.80;1.17;;;16.10;99.90;;;;;;6124879;29;20051;-75
2023/05/10 18:08:46;;;;;;;4.57;1.23;;;16.10;99.90;;;;;;6126079;29;20051;-76
2023/05/10 18:11:48;;;;;;;5.43;1.40;;;15.90;99.90;;;;;;6125726;29;20051;-76
2023/05/10 18:14:52;;;;;;;2.78;1.00;;;15.90;99.90;;;;;;6126907;29;20421;-75
2023/05/10 18:17:54;;;;;;;3.47;1.10;;;15.70;99.90;;;;;;6115658;29;20044;-74
2023/05/10 18:20:57;;;;;;;1.80;0.70;;;15.70;99.90;;;;;;6118169;29;20044;-77
2023/05/10 18:23:58;;;;;;;3.72;1.02;;;15.60;99.90;;;;;;6125089;29;20079;-78
2023/05/10 18:27:00;;;;;;;5.88;1.10;;;15.60;99.70;;;;;;6119214;29;20040;-79
2023/05/10 18:30:05;;;;;;;4.00;0.68;;;15.40;99.90;;;;;;6124469;29;20058;-80
2023/05/10 18:33:08;;;;;;;2.15;0.80;;;15.30;99.90;;;;;;6123569;29;20060;-76
2023/05/10 18:36:10;;;;;;;2.58;0.70;;;15.30;99.90;;;;;;6121028;29;20082;-84
2023/05/10 18:39:13;;;;;;;1.48;0.60;;;15.30;99.80;;;;;;6120388;29;20629;-76
2023/05/10 18:42:14;;;;;;;4.60;1.00;;;15.30;99.90;;;;;;6121768;29;20058;-78
2023/05/10 18:45:18;;;;;;;1.45;0.57;;;15.30;99.90;;;;;;6121437;29;20066;-77
2023/05/10 18:48:20;;;;;;;1.92;0.70;;;15.30;99.90;;;;;;6121727;29;20451;-77
2023/05/10 18:51:22;;;;;;;2.97;0.70;;;15.30;99.90;;;;;;6120443;29;20493;-78
2023/05/10 18:54:25;;;;;;;5.45;1.10;;;15.40;99.90;;;;;;6097981;29;20056;-79
2023/05/10 18:57:27;;;;;;;4.07;1.40;;;15.40;99.90;;;;;;6102516;29;20047;-78
2023/05/10 19:00:30;;;;;;;1.55;0.70;;;15.40;99.90;;;;;;6121177;29;20051;-78
2023/05/10 19:03:32;;;;;;;2.00;0.73;;;15.40;99.90;;;;;;6120471;29;20056;-78
2023/05/10 19:06:34;;;;;;;1.88;0.60;;;15.40;99.80;;;;;;6121751;29;20106;-78
2023/05/10 19:09:36;;;;;;;4.43;0.75;;;15.40;99.90;;;;;;6121411;29;20154;-77
2023/05/10 19:12:40;;;;;;;2.80;0.80;;;15.40;99.90;;;;;;6121513;29;20048;-78
2023/05/10 19:15:43;;;;;;;;;;;15.40;99.90;;;;;;6120275;29;20054;-77
2023/05/10 19:18:45;;;;;;;2.53;0.93;;;15.40;99.90;;;;;;6122264;29;19926;-80
2023/05/10 19:21:47;;;;;;;3.03;1.10;;;15.30;99.90;;;;;;6121518;29;20052;-83
2023/05/10 19:24:49;;;;;;;1.23;0.50;;;15.30;99.90;;;;;;6122159;29;20059;-82
2023/05/10 19:27:51;;;;;;;2.50;0.70;;;15.20;99.90;;;;;;6121802;29;20062;-81
2023/05/10 19:30:55;;;;;;;1.95;0.70;;;15.20;99.90;;;;;;6118181;29;20047;-76
2023/05/10 19:33:57;;;;;;;3.67;0.90;;;15.20;99.90;;;;;;6120263;29;20063;-79
2023/05/10 19:36:59;;;;;;;2.75;0.90;;;15.10;99.90;;;;;;6120400;29;20052;-80
2023/05/10 19:40:02;;;;;;;3.08;0.90;;;15.10;99.90;;;;;;6121520;29;20111;-77
2023/05/10 19:43:04;;;;;;;3.75;0.95;;;15.10;99.90;;;;;;6120742;29;20759;-78
2023/05/10 19:46:08;;;;;;;3.97;1.15;;;15.10;99.90;;;;;;6119556;29;20195;-78
2023/05/10 19:49:10;;;;;;;4.32;1.42;;;15.10;99.90;;;;;;6116035;29;20056;-77
2023/05/10 19:52:12;;;;;;;4.00;1.20;;;15.10;99.90;;;;;;6121340;29;20047;-78
2023/05/10 19:55:25;;;;;;;2.75;1.02;;;15.00;99.90;;;;;;6114870;29;20059;-75
2023/05/10 19:58:28;;;;;;;2.33;1.20;;;15.10;99.90;;;;;;6095346;29;20071;-75
2023/05/10 20:01:31;;;;;;;4.00;0.85;;;15.00;99.90;;;;;;6111684;29;20472;-76
2023/05/10 20:04:33;;;;;;;4.13;1.10;;;15.00;99.90;;;;;;6123902;29;20083;-76
2023/05/10 20:07:36;;;;;;;2.25;0.90;;;15.00;99.90;;;;;;6124568;29;20059;-78
2023/05/10 20:10:38;;;;;;;4.22;1.05;;;14.90;99.90;;;;;;6104323;29;20486;-78
2023/05/10 20:13:40;;;;;;;4.43;0.90;;;14.90;99.90;;;;;;6113538;29;20048;-77
2023/05/10 20:16:44;;;;;;;2.80;0.90;;;14.90;99.90;;;;;;6120176;29;20059;-76
2023/05/10 20:19:45;;;;;;;2.75;0.95;;;14.90;99.90;;;;;;6128201;29;20047;-77
2023/05/10 20:22:48;;;;;;;2.58;1.33;;;14.90;99.90;;;;;;6126206;29;20054;-74
2023/05/10 20:25:50;;;;;;;4.22;1.10;;;14.90;99.90;;;;;;6122033;29;20520;-77
2023/05/10 20:28:52;;;;;;;3.45;1.05;;;14.90;99.90;;;;;;6122157;29;20056;-77
2023/05/10 20:31:55;;;;;;;4.80;1.00;;;14.80;99.90;;;;;;6103488;29;20063;-76
2023/05/10 20:34:57;;;;;;;2.30;0.95;;;14.80;99.90;;;;;;6117072;29;20059;-75
2023/05/10 20:38:00;;;;;;;2.75;1.10;;;14.80;99.90;;;;;;6126933;29;20134;-78
2023/05/10 20:41:02;;;;;;;3.88;1.00;;;14.70;99.90;;;;;;6127749;29;20048;-77
2023/05/10 20:44:05;;;;;;;2.17;0.90;;;14.70;99.90;;;;;;6128787;29;20054;-77
2023/05/10 20:47:08;;;;;;;1.92;0.80;;;14.70;99.90;;;;;;6125569;29;20509;-78
2023/05/10 20:50:11;;;;;;;2.65;0.98;;;14.70;99.90;;;;;;6105297;29;20048;-77
2023/05/10 20:53:14;;;;;;;2.33;0.90;;;14.60;99.90;;;;;;6127065;29;20051;-77
2023/05/10 20:56:16;;;;;;;3.35;1.00;;;14.60;99.90;;;;;;6126941;29;20425;-77
2023/05/10 20:59:17;;;;;;;3.40;1.00;;;14.60;99.90;;;;;;6126737;29;20059;-76
2023/05/10 21:02:21;;;;;;;2.10;0.80;;;14.50;99.90;;;;;;6126281;29;20058;-74
2023/05/10 21:05:23;;;;;;;2.40;0.75;;;14.50;99.90;;;;;;6126071;29;20077;-76
2023/05/10 21:08:25;;;;;;;1.98;0.70;;;14.50;99.90;;;;;;6127600;29;20048;-75
2023/05/10 21:11:27;;;;;;;2.15;0.80;;;14.50;99.90;;;;;;6129753;29;20051;-78
2023/05/10 21:14:28;;;;;;;2.33;1.10;;;14.50;99.90;;;;;;6127264;29;20063;-75
2023/05/10 21:17:32;;;;;;;2.38;1.00;;;14.50;99.90;;;;;;6124847;29;20048;-77
2023/05/10 21:20:34;;;;;;;3.17;0.93;;;14.50;99.90;;;;;;6119016;29;20051;-79
2023/05/10 21:23:35;;;;;;;3.95;0.80;;;14.50;99.90;;;;;;6125819;29;20051;-75
2023/05/10 21:26:37;;;;;;;4.28;1.10;;;14.40;99.90;;;;;;6124862;29;20410;-76
2023/05/10 21:29:39;;;;;;;2.13;0.90;;;14.40;99.90;;;;;;6126143;29;20066;-77
2023/05/10 21:32:42;;;;;;;3.03;1.10;;;14.40;99.90;;;;;;6125641;29;20064;-78
2023/05/10 21:35:44;;;;;;;4.75;1.02;;;14.30;99.90;;;;;;6125382;29;20055;-77
2023/05/10 21:38:48;;;;;;;5.70;0.95;;;14.30;99.90;;;;;;6126044;29;20473;-76
2023/05/10 21:41:50;;;;;;;2.33;1.00;;;14.20;99.90;;;;;;6125795;29;20481;-75
2023/05/10 21:44:52;;;;;;;2.92;1.20;;;14.20;99.90;;;;;;6125644;29;20493;-77
2023/05/10 21:47:55;;;;;;;2.33;0.85;;;14.20;99.90;;;;;;6124863;29;20052;-77
2023/05/10 21:50:57;;;;;;;1.92;0.90;;;14.10;99.90;;;;;;6124254;29;20051;-76
2023/05/10 21:53:59;;;;;;;3.00;0.90;;;14.10;99.90;;;;;;6125563;29;20047;-78
2023/05/10 21:57:01;;;;;;;1.58;0.70;;;14.10;99.90;;;;;;6125027;29;20410;-77
